sensor_id;sensor_type;location;lat;lon;timestamp;temperature;humidity
29341;DHT22;16337;59.536;13.468;2023-09-19T00:02:18;16.70;99.90
29341;DHT22;16337;59.536;13.468;2023-09-19T00:04:44;16.70;99.90
29341;DHT22;16337;59.536;13.468;2023-09-19T00:07:10;16.70;99.90
29341;DHT22;16337;59.536;13.468;2023-09-19T00:09:35;16.70;99.90
29341;DHT22;16337;59.536;13.468;2023-09-19T00:12:05;16.70;99.90
29341;DHT22;16337;59.536;13.468;2023-09-19T00:14:31;16.70;99.90
29341;DHT22;16337;59.536;13.468;2023-09-19T00:17:00;16.70;99.90
29341;DHT22;16337;59.536;13.468;2023-09-19T00:19:26;16.70;99.90
29341;DHT22;16337;59.536;13.468;2023-09-19T00:21:52;16.80;99.90
29341;DHT22;16337;59.536;13.468;2023-09-19T00:24:18;16.70;99.90
29341;DHT22;16337;59.536;13.468;2023-09-19T00:26:44;16.70;99.90
29341;DHT22;16337;59.536;13.468;2023-09-19T00:29:12;16.70;99.90
29341;DHT22;16337;59.536;13.468;2023-09-19T00:31:43;16.80;99.90
29341;DHT22;16337;59.536;13.468;2023-09-19T00:34:09;16.70;99.90
29341;DHT22;16337;59.536;13.468;2023-09-19T00:36:39;16.70;99.90
29341;DHT22;16337;59.536;13.468;2023-09-19T00:39:06;16.70;99.90
29341;DHT22;16337;59.536;13.468;2023-09-19T00:41:32;16.80;99.90
29341;DHT22;16337;59.536;13.468;2023-09-19T00:44:01;16.80;99.90
29341;DHT22;16337;59.536;13.468;2023-09-19T00:46:27;16.70;99.90
29341;DHT22;16337;59.536;13.468;2023-09-19T00:48:53;16.70;99.90
29341;DHT22;16337;59.536;13.468;2023-09-19T00:51:20;16.70;99.90
29341;DHT22;16337;59.536;13.468;2023-09-19T00:53:47;16.70;99.90
29341;DHT22;16337;59.536;13.468;2023-09-19T00:56:14;16.70;99.90
29341;DHT22;16337;59.536;13.468;2023-09-19T00:58:40;16.70;99.90
29341;DHT22;16337;59.536;13.468;2023-09-19T01:01:06;16.70;99.90
29341;DHT22;16337;59.536;13.468;2023-09-19T01:03:33;16.70;99.90
29341;DHT22;16337;59.536;13.468;2023-09-19T01:06:01;16.70;99.90
29341;DHT22;16337;59.536;13.468;2023-09-19T01:08:28;16.70;99.90
29341;DHT22;16337;59.536;13.468;2023-09-19T01:11:25;16.70;99.90
29341;DHT22;16337;59.536;13.468;2023-09-19T01:30:31;16.70;99.90
29341;DHT22;16337;59.536;13.468;2023-09-19T01:32:59;16.70;99.90
29341;DHT22;16337;59.536;13.468;2023-09-19T01:35:25;16.70;99.90
29341;DHT22;16337;59.536;13.468;2023-09-19T01:37:51;16.70;99.90
29341;DHT22;16337;59.536;13.468;2023-09-19T01:40:20;16.70;99.90
29341;DHT22;16337;59.536;13.468;2023-09-19T01:43:04;16.70;99.90
29341;DHT22;16337;59.536;13.468;2023-09-19T01:53:30;16.80;99.90
29341;DHT22;16337;59.536;13.468;2023-09-19T01:55:59;16.80;99.90
29341;DHT22;16337;59.536;13.468;2023-09-19T02:00:53;16.80;99.90
29341;DHT22;16337;59.536;13.468;2023-09-19T02:03:21;16.80;99.90
29341;DHT22;16337;59.536;13.468;2023-09-19T02:05:50;16.80;99.90
29341;DHT22;16337;59.536;13.468;2023-09-19T02:08:21;16.80;99.90
29341;DHT22;16337;59.536;13.468;2023-09-19T02:10:49;16.80;99.90
29341;DHT22;16337;59.536;13.468;2023-09-19T02:13:19;16.80;99.90
29341;DHT22;16337;59.536;13.468;2023-09-19T02:15:45;16.80;99.90
29341;DHT22;16337;59.536;13.468;2023-09-19T02:18:12;16.80;99.90
29341;DHT22;16337;59.536;13.468;2023-09-19T02:20:38;16.80;99.90
29341;DHT22;16337;59.536;13.468;2023-09-19T02:23:05;16.80;99.90
29341;DHT22;16337;59.536;13.468;2023-09-19T02:25:31;16.80;99.90
29341;DHT22;16337;59.536;13.468;2023-09-19T02:28:01;16.80;99.90
29341;DHT22;16337;59.536;13.468;2023-09-19T02:30:34;16.80;99.90
29341;DHT22;16337;59.536;13.468;2023-09-19T02:33:01;16.80;99.90
29341;DHT22;16337;59.536;13.468;2023-09-19T02:35:28;16.80;99.90
29341;DHT22;16337;59.536;13.468;2023-09-19T02:37:53;16.80;99.90
29341;DHT22;16337;59.536;13.468;2023-09-19T02:40:19;16.80;99.90
29341;DHT22;16337;59.536;13.468;2023-09-19T02:42:48;16.80;99.90
29341;DHT22;16337;59.536;13.468;2023-09-19T02:45:16;16.80;99.90
29341;DHT22;16337;59.536;13.468;2023-09-19T02:47:43;16.80;99.90
29341;DHT22;16337;59.536;13.468;2023-09-19T02:50:09;16.80;99.90
29341;DHT22;16337;59.536;13.468;2023-09-19T02:52:41;16.80;99.90
29341;DHT22;16337;59.536;13.468;2023-09-19T02:55:08;16.80;99.90
29341;DHT22;16337;59.536;13.468;2023-09-19T02:57:35;16.80;99.90
29341;DHT22;16337;59.536;13.468;2023-09-19T03:00:03;16.80;99.90
29341;DHT22;16337;59.536;13.468;2023-09-19T03:02:30;16.80;99.90
29341;DHT22;16337;59.536;13.468;2023-09-19T03:04:58;16.80;99.90
29341;DHT22;16337;59.536;13.468;2023-09-19T03:07:26;16.80;99.90
29341;DHT22;16337;59.536;13.468;2023-09-19T03:09:51;16.80;99.90
29341;DHT22;16337;59.536;13.468;2023-09-19T03:12:18;16.80;99.90
29341;DHT22;16337;59.536;13.468;2023-09-19T03:14:44;16.80;99.90
29341;DHT22;16337;59.536;13.468;2023-09-19T03:17:09;16.90;99.90
29341;DHT22;16337;59.536;13.468;2023-09-19T03:19:35;16.90;99.90
29341;DHT22;16337;59.536;13.468;2023-09-19T03:22:03;16.90;99.90
29341;DHT22;16337;59.536;13.468;2023-09-19T03:24:28;16.90;99.90
29341;DHT22;16337;59.536;13.468;2023-09-19T03:26:54;16.90;99.90
29341;DHT22;16337;59.536;13.468;2023-09-19T03:29:20;16.90;99.90
29341;DHT22;16337;59.536;13.468;2023-09-19T03:31:46;16.90;99.90
29341;DHT22;16337;59.536;13.468;2023-09-19T03:34:12;16.90;99.90
29341;DHT22;16337;59.536;13.468;2023-09-19T03:36:37;16.90;99.90
29341;DHT22;16337;59.536;13.468;2023-09-19T03:39:03;16.90;99.90
29341;DHT22;16337;59.536;13.468;2023-09-19T03:41:32;16.90;99.90
29341;DHT22;16337;59.536;13.468;2023-09-19T03:43:58;16.90;99.90
29341;DHT22;16337;59.536;13.468;2023-09-19T03:46:24;16.90;99.90
29341;DHT22;16337;59.536;13.468;2023-09-19T03:48:50;16.90;99.90
29341;DHT22;16337;59.536;13.468;2023-09-19T03:51:16;16.90;99.90
29341;DHT22;16337;59.536;13.468;2023-09-19T03:53:41;17.00;99.90
29341;DHT22;16337;59.536;13.468;2023-09-19T03:56:07;16.90;99.90
29341;DHT22;16337;59.536;13.468;2023-09-19T03:58:33;17.00;99.90
29341;DHT22;16337;59.536;13.468;2023-09-19T04:01:03;17.00;99.90
29341;DHT22;16337;59.536;13.468;2023-09-19T04:03:29;17.00;99.90
29341;DHT22;16337;59.536;13.468;2023-09-19T04:06:01;17.00;99.90
29341;DHT22;16337;59.536;13.468;2023-09-19T04:08:27;17.00;99.90
29341;DHT22;16337;59.536;13.468;2023-09-19T04:10:53;17.00;99.90
29341;DHT22;16337;59.536;13.468;2023-09-19T04:13:19;17.00;99.90
29341;DHT22;16337;59.536;13.468;2023-09-19T04:15:44;17.00;99.90
29341;DHT22;16337;59.536;13.468;2023-09-19T04:18:11;17.00;99.90
29341;DHT22;16337;59.536;13.468;2023-09-19T04:20:37;17.00;99.90
29341;DHT22;16337;59.536;13.468;2023-09-19T04:23:03;17.00;99.90
29341;DHT22;16337;59.536;13.468;2023-09-19T04:25:30;17.00;99.90
29341;DHT22;16337;59.536;13.468;2023-09-19T04:27:57;17.00;99.90
29341;DHT22;16337;59.536;13.468;2023-09-19T04:30:23;17.10;99.90
29341;DHT22;16337;59.536;13.468;2023-09-19T04:32:49;17.10;99.90
29341;DHT22;16337;59.536;13.468;2023-09-19T04:35:16;17.10;99.90
29341;DHT22;16337;59.536;13.468;2023-09-19T04:37:44;17.10;99.90
29341;DHT22;16337;59.536;13.468;2023-09-19T04:40:11;17.10;99.90
29341;DHT22;16337;59.536;13.468;2023-09-19T04:42:50;17.10;99.90
29341;DHT22;16337;59.536;13.468;2023-09-19T04:45:18;17.10;99.90
29341;DHT22;16337;59.536;13.468;2023-09-19T04:47:45;17.10;99.90
29341;DHT22;16337;59.536;13.468;2023-09-19T04:50:11;17.10;99.90
29341;DHT22;16337;59.536;13.468;2023-09-19T04:52:39;17.10;99.90
29341;DHT22;16337;59.536;13.468;2023-09-19T04:55:09;17.10;99.90
29341;DHT22;16337;59.536;13.468;2023-09-19T04:57:35;17.10;99.90
29341;DHT22;16337;59.536;13.468;2023-09-19T05:00:02;17.10;99.90
29341;DHT22;16337;59.536;13.468;2023-09-19T05:02:32;17.10;99.90
29341;DHT22;16337;59.536;13.468;2023-09-19T05:05:00;17.10;99.90
29341;DHT22;16337;59.536;13.468;2023-09-19T05:07:25;17.10;99.90
29341;DHT22;16337;59.536;13.468;2023-09-19T05:09:51;17.10;99.90
29341;DHT22;16337;59.536;13.468;2023-09-19T05:12:17;17.10;99.90
29341;DHT22;16337;59.536;13.468;2023-09-19T05:14:45;17.10;99.90
29341;DHT22;16337;59.536;13.468;2023-09-19T05:17:10;17.20;99.90
29341;DHT22;16337;59.536;13.468;2023-09-19T05:19:36;17.20;99.90
29341;DHT22;16337;59.536;13.468;2023-09-19T05:22:02;17.10;99.90
29341;DHT22;16337;59.536;13.468;2023-09-19T05:24:29;17.20;99.90
29341;DHT22;16337;59.536;13.468;2023-09-19T05:26:56;17.20;99.90
29341;DHT22;16337;59.536;13.468;2023-09-19T05:29:22;17.20;99.90
29341;DHT22;16337;59.536;13.468;2023-09-19T05:31:48;17.20;99.90
29341;DHT22;16337;59.536;13.468;2023-09-19T05:34:15;17.20;99.90
29341;DHT22;16337;59.536;13.468;2023-09-19T05:36:40;17.20;99.90
29341;DHT22;16337;59.536;13.468;2023-09-19T05:39:07;17.20;99.90
29341;DHT22;16337;59.536;13.468;2023-09-19T05:41:35;17.20;99.90
29341;DHT22;16337;59.536;13.468;2023-09-19T05:44:03;17.20;99.90
29341;DHT22;16337;59.536;13.468;2023-09-19T05:46:29;17.10;99.90
29341;DHT22;16337;59.536;13.468;2023-09-19T05:48:55;17.10;99.90
29341;DHT22;16337;59.536;13.468;2023-09-19T05:51:22;17.10;99.90
29341;DHT22;16337;59.536;13.468;2023-09-19T05:53:48;17.10;99.90
29341;DHT22;16337;59.536;13.468;2023-09-19T05:56:14;17.20;99.90
29341;DHT22;16337;59.536;13.468;2023-09-19T05:58:40;17.20;99.90
29341;DHT22;16337;59.536;13.468;2023-09-19T06:01:10;17.20;99.90
29341;DHT22;16337;59.536;13.468;2023-09-19T06:03:35;17.20;99.90
29341;DHT22;16337;59.536;13.468;2023-09-19T06:06:04;17.20;99.90
29341;DHT22;16337;59.536;13.468;2023-09-19T06:08:35;17.10;99.90
29341;DHT22;16337;59.536;13.468;2023-09-19T06:11:01;17.10;99.90
29341;DHT22;16337;59.536;13.468;2023-09-19T06:13:30;17.10;99.90
29341;DHT22;16337;59.536;13.468;2023-09-19T06:15:56;17.10;99.90
29341;DHT22;16337;59.536;13.468;2023-09-19T06:18:22;17.10;99.90
29341;DHT22;16337;59.536;13.468;2023-09-19T06:20:51;17.10;99.90
29341;DHT22;16337;59.536;13.468;2023-09-19T06:23:17;17.10;99.90
29341;DHT22;16337;59.536;13.468;2023-09-19T06:25:43;17.10;99.90
29341;DHT22;16337;59.536;13.468;2023-09-19T06:28:09;17.10;99.90
29341;DHT22;16337;59.536;13.468;2023-09-19T06:30:38;17.10;99.90
29341;DHT22;16337;59.536;13.468;2023-09-19T06:33:07;17.20;99.90
29341;DHT22;16337;59.536;13.468;2023-09-19T06:35:33;17.20;99.90
29341;DHT22;16337;59.536;13.468;2023-09-19T06:38:02;17.20;99.90
29341;DHT22;16337;59.536;13.468;2023-09-19T06:40:28;17.30;99.90
29341;DHT22;16337;59.536;13.468;2023-09-19T06:42:57;17.20;99.90
29341;DHT22;16337;59.536;13.468;2023-09-19T06:45:23;17.30;99.90
29341;DHT22;16337;59.536;13.468;2023-09-19T06:47:52;17.40;99.90
29341;DHT22;16337;59.536;13.468;2023-09-19T06:50:22;17.30;99.90
29341;DHT22;16337;59.536;13.468;2023-09-19T06:52:52;17.40;99.90
29341;DHT22;16337;59.536;13.468;2023-09-19T06:55:20;17.40;99.90
29341;DHT22;16337;59.536;13.468;2023-09-19T06:57:48;17.30;99.90
29341;DHT22;16337;59.536;13.468;2023-09-19T07:00:15;17.40;99.90
29341;DHT22;16337;59.536;13.468;2023-09-19T07:02:57;17.40;99.90
29341;DHT22;16337;59.536;13.468;2023-09-19T07:05:28;17.30;99.90
29341;DHT22;16337;59.536;13.468;2023-09-19T07:07:54;17.30;99.90
29341;DHT22;16337;59.536;13.468;2023-09-19T07:10:21;17.30;99.90
29341;DHT22;16337;59.536;13.468;2023-09-19T07:12:58;17.20;99.90
29341;DHT22;16337;59.536;13.468;2023-09-19T07:15:27;17.20;99.90
29341;DHT22;16337;59.536;13.468;2023-09-19T07:17:54;17.20;99.90
29341;DHT22;16337;59.536;13.468;2023-09-19T07:20:22;17.10;99.90
29341;DHT22;16337;59.536;13.468;2023-09-19T07:22:51;17.10;99.90
29341;DHT22;16337;59.536;13.468;2023-09-19T07:25:17;17.00;99.90
29341;DHT22;16337;59.536;13.468;2023-09-19T07:27:43;17.00;99.90
29341;DHT22;16337;59.536;13.468;2023-09-19T07:30:09;17.00;99.90
29341;DHT22;16337;59.536;13.468;2023-09-19T07:32:37;17.00;99.90
29341;DHT22;16337;59.536;13.468;2023-09-19T07:35:04;17.00;99.90
29341;DHT22;16337;59.536;13.468;2023-09-19T07:37:31;16.90;99.90
29341;DHT22;16337;59.536;13.468;2023-09-19T07:39:59;17.00;99.90
29341;DHT22;16337;59.536;13.468;2023-09-19T07:42:26;17.10;99.90
29341;DHT22;16337;59.536;13.468;2023-09-19T07:44:52;17.00;99.90
29341;DHT22;16337;59.536;13.468;2023-09-19T07:47:20;17.10;99.90
29341;DHT22;16337;59.536;13.468;2023-09-19T07:49:47;17.10;99.90
29341;DHT22;16337;59.536;13.468;2023-09-19T07:52:13;17.10;99.90
29341;DHT22;16337;59.536;13.468;2023-09-19T07:54:39;17.10;99.90
29341;DHT22;16337;59.536;13.468;2023-09-19T07:57:10;17.20;99.90
29341;DHT22;16337;59.536;13.468;2023-09-19T07:59:36;17.20;99.90
29341;DHT22;16337;59.536;13.468;2023-09-19T08:02:04;17.20;99.90
29341;DHT22;16337;59.536;13.468;2023-09-19T08:04:30;17.20;99.90
29341;DHT22;16337;59.536;13.468;2023-09-19T08:06:58;17.20;99.90
29341;DHT22;16337;59.536;13.468;2023-09-19T08:09:26;17.30;99.90
29341;DHT22;16337;59.536;13.468;2023-09-19T08:11:53;17.40;99.90
29341;DHT22;16337;59.536;13.468;2023-09-19T08:14:18;17.40;99.90
29341;DHT22;16337;59.536;13.468;2023-09-19T08:16:44;17.40;99.90
29341;DHT22;16337;59.536;13.468;2023-09-19T08:19:10;17.40;99.90
29341;DHT22;16337;59.536;13.468;2023-09-19T08:21:36;17.30;99.90
29341;DHT22;16337;59.536;13.468;2023-09-19T08:24:02;17.20;99.90
29341;DHT22;16337;59.536;13.468;2023-09-19T08:26:29;17.20;99.90
29341;DHT22;16337;59.536;13.468;2023-09-19T08:28:55;17.30;99.90
29341;DHT22;16337;59.536;13.468;2023-09-19T08:31:21;17.20;99.90
29341;DHT22;16337;59.536;13.468;2023-09-19T08:33:48;17.20;99.90
29341;DHT22;16337;59.536;13.468;2023-09-19T08:36:15;17.20;99.90
29341;DHT22;16337;59.536;13.468;2023-09-19T08:38:41;17.20;99.90
29341;DHT22;16337;59.536;13.468;2023-09-19T08:41:07;17.20;99.90
29341;DHT22;16337;59.536;13.468;2023-09-19T08:43:34;17.30;99.90
29341;DHT22;16337;59.536;13.468;2023-09-19T08:48:31;17.70;99.90
29341;DHT22;16337;59.536;13.468;2023-09-19T08:51:02;17.90;99.90
29341;DHT22;16337;59.536;13.468;2023-09-19T08:53:41;18.00;99.90
29341;DHT22;16337;59.536;13.468;2023-09-19T08:56:11;18.00;99.90
29341;DHT22;16337;59.536;13.468;2023-09-19T08:58:46;18.30;99.90
29341;DHT22;16337;59.536;13.468;2023-09-19T09:01:17;18.40;99.90
29341;DHT22;16337;59.536;13.468;2023-09-19T09:03:53;18.00;99.90
29341;DHT22;16337;59.536;13.468;2023-09-19T09:06:23;17.60;99.90
29341;DHT22;16337;59.536;13.468;2023-09-19T09:08:53;17.40;99.90
29341;DHT22;16337;59.536;13.468;2023-09-19T09:11:19;18.00;99.90
29341;DHT22;16337;59.536;13.468;2023-09-19T09:13:45;18.20;99.90
29341;DHT22;16337;59.536;13.468;2023-09-19T09:16:11;18.30;99.90
29341;DHT22;16337;59.536;13.468;2023-09-19T09:18:38;18.10;99.90
29341;DHT22;16337;59.536;13.468;2023-09-19T09:21:04;18.00;99.90
29341;DHT22;16337;59.536;13.468;2023-09-19T09:23:30;18.10;99.90
29341;DHT22;16337;59.536;13.468;2023-09-19T09:25:58;18.40;99.90
29341;DHT22;16337;59.536;13.468;2023-09-19T09:28:27;19.10;99.90
29341;DHT22;16337;59.536;13.468;2023-09-19T09:30:54;19.70;99.90
29341;DHT22;16337;59.536;13.468;2023-09-19T09:33:21;19.70;99.90
29341;DHT22;16337;59.536;13.468;2023-09-19T09:35:59;19.60;99.90
29341;DHT22;16337;59.536;13.468;2023-09-19T09:38:30;19.80;99.90
29341;DHT22;16337;59.536;13.468;2023-09-19T09:41:09;19.80;99.90
29341;DHT22;16337;59.536;13.468;2023-09-19T09:43:36;19.30;99.90
29341;DHT22;16337;59.536;13.468;2023-09-19T09:46:14;19.10;99.90
29341;DHT22;16337;59.536;13.468;2023-09-19T09:48:59;19.00;99.90
29341;DHT22;16337;59.536;13.468;2023-09-19T09:51:51;19.20;99.90
29341;DHT22;16337;59.536;13.468;2023-09-19T09:54:25;19.30;99.90
29341;DHT22;16337;59.536;13.468;2023-09-19T09:57:05;19.60;99.90
29341;DHT22;16337;59.536;13.468;2023-09-19T09:59:52;20.10;99.90
29341;DHT22;16337;59.536;13.468;2023-09-19T10:02:27;19.80;99.90
29341;DHT22;16337;59.536;13.468;2023-09-19T10:05:22;19.50;99.90
29341;DHT22;16337;59.536;13.468;2023-09-19T10:08:12;19.50;99.90
29341;DHT22;16337;59.536;13.468;2023-09-19T10:10:39;19.70;99.90
29341;DHT22;16337;59.536;13.468;2023-09-19T10:13:10;19.70;99.90
29341;DHT22;16337;59.536;13.468;2023-09-19T10:15:51;20.00;99.90
29341;DHT22;16337;59.536;13.468;2023-09-19T10:18:25;20.20;99.90
29341;DHT22;16337;59.536;13.468;2023-09-19T10:20:53;20.50;99.90
29341;DHT22;16337;59.536;13.468;2023-09-19T10:23:21;20.50;99.90
29341;DHT22;16337;59.536;13.468;2023-09-19T10:25:55;19.50;99.90
29341;DHT22;16337;59.536;13.468;2023-09-19T10:28:22;18.80;99.90
29341;DHT22;16337;59.536;13.468;2023-09-19T10:30:52;18.70;99.90
29341;DHT22;16337;59.536;13.468;2023-09-19T10:33:19;18.70;99.90
29341;DHT22;16337;59.536;13.468;2023-09-19T10:35:47;18.70;99.90
29341;DHT22;16337;59.536;13.468;2023-09-19T10:38:16;18.60;99.90
29341;DHT22;16337;59.536;13.468;2023-09-19T10:40:44;18.70;99.90
29341;DHT22;16337;59.536;13.468;2023-09-19T10:43:16;19.00;99.90
29341;DHT22;16337;59.536;13.468;2023-09-19T10:45:48;18.90;99.90
29341;DHT22;16337;59.536;13.468;2023-09-19T10:48:15;18.80;99.90
29341;DHT22;16337;59.536;13.468;2023-09-19T10:51:12;18.70;99.90
29341;DHT22;16337;59.536;13.468;2023-09-19T10:53:53;18.10;99.90
29341;DHT22;16337;59.536;13.468;2023-09-19T10:56:26;18.00;99.90
29341;DHT22;16337;59.536;13.468;2023-09-19T10:59:06;17.70;99.90
29341;DHT22;16337;59.536;13.468;2023-09-19T11:01:43;17.60;99.90
29341;DHT22;16337;59.536;13.468;2023-09-19T11:04:34;17.50;99.90
29341;DHT22;16337;59.536;13.468;2023-09-19T11:07:11;17.30;99.90
29341;DHT22;16337;59.536;13.468;2023-09-19T11:09:50;17.40;99.90
29341;DHT22;16337;59.536;13.468;2023-09-19T11:14:59;17.00;99.90
29341;DHT22;16337;59.536;13.468;2023-09-19T11:17:35;17.00;99.90
29341;DHT22;16337;59.536;13.468;2023-09-19T11:30:41;18.40;99.90
29341;DHT22;16337;59.536;13.468;2023-09-19T11:33:24;18.20;99.90
29341;DHT22;16337;59.536;13.468;2023-09-19T11:43:48;17.30;99.90
29341;DHT22;16337;59.536;13.468;2023-09-19T11:46:14;17.20;99.90
29341;DHT22;16337;59.536;13.468;2023-09-19T11:48:43;17.60;99.90
29341;DHT22;16337;59.536;13.468;2023-09-19T11:51:13;18.10;99.90
29341;DHT22;16337;59.536;13.468;2023-09-19T11:53:48;18.30;99.90
29341;DHT22;16337;59.536;13.468;2023-09-19T11:56:19;18.30;99.90
29341;DHT22;16337;59.536;13.468;2023-09-19T11:58:46;18.00;99.90
29341;DHT22;16337;59.536;13.468;2023-09-19T12:01:15;17.90;99.90
29341;DHT22;16337;59.536;13.468;2023-09-19T12:03:47;17.70;99.90
29341;DHT22;16337;59.536;13.468;2023-09-19T12:06:18;17.70;99.90
29341;DHT22;16337;59.536;13.468;2023-09-19T12:08:44;17.70;99.90
29341;DHT22;16337;59.536;13.468;2023-09-19T12:11:16;17.90;99.90
29341;DHT22;16337;59.536;13.468;2023-09-19T12:13:44;17.70;99.90
29341;DHT22;16337;59.536;13.468;2023-09-19T12:16:19;17.70;99.90
29341;DHT22;16337;59.536;13.468;2023-09-19T12:18:49;18.10;99.90
29341;DHT22;16337;59.536;13.468;2023-09-19T12:21:23;18.20;99.90
29341;DHT22;16337;59.536;13.468;2023-09-19T12:24:11;18.20;99.90
29341;DHT22;16337;59.536;13.468;2023-09-19T12:26:47;18.10;99.90
29341;DHT22;16337;59.536;13.468;2023-09-19T12:29:21;18.20;99.90
29341;DHT22;16337;59.536;13.468;2023-09-19T12:31:55;18.20;99.90
29341;DHT22;16337;59.536;13.468;2023-09-19T12:34:32;18.40;99.90
29341;DHT22;16337;59.536;13.468;2023-09-19T12:37:08;18.50;99.90
29341;DHT22;16337;59.536;13.468;2023-09-19T12:39:43;18.80;99.90
29341;DHT22;16337;59.536;13.468;2023-09-19T12:42:12;18.50;99.90
29341;DHT22;16337;59.536;13.468;2023-09-19T12:44:49;18.20;99.90
29341;DHT22;16337;59.536;13.468;2023-09-19T12:47:20;18.00;99.90
29341;DHT22;16337;59.536;13.468;2023-09-19T12:50:14;17.50;99.90
29341;DHT22;16337;59.536;13.468;2023-09-19T12:52:52;17.30;99.90
29341;DHT22;16337;59.536;13.468;2023-09-19T12:55:29;17.30;99.90
29341;DHT22;16337;59.536;13.468;2023-09-19T12:58:13;17.30;99.90
29341;DHT22;16337;59.536;13.468;2023-09-19T13:00:43;17.60;99.90
29341;DHT22;16337;59.536;13.468;2023-09-19T13:03:26;17.80;99.90
29341;DHT22;16337;59.536;13.468;2023-09-19T13:06:03;17.90;99.90
29341;DHT22;16337;59.536;13.468;2023-09-19T13:08:38;17.70;99.90
29341;DHT22;16337;59.536;13.468;2023-09-19T13:11:11;17.60;99.90
29341;DHT22;16337;59.536;13.468;2023-09-19T13:16:19;17.00;99.90
29341;DHT22;16337;59.536;13.468;2023-09-19T13:18:53;16.90;99.90
29341;DHT22;16337;59.536;13.468;2023-09-19T13:21:31;17.00;99.90
29341;DHT22;16337;59.536;13.468;2023-09-19T13:24:19;17.00;99.90
29341;DHT22;16337;59.536;13.468;2023-09-19T13:26:46;17.00;99.90
29341;DHT22;16337;59.536;13.468;2023-09-19T13:29:12;16.60;99.90
29341;DHT22;16337;59.536;13.468;2023-09-19T13:31:37;16.30;99.90
29341;DHT22;16337;59.536;13.468;2023-09-19T13:34:07;16.10;99.90
29341;DHT22;16337;59.536;13.468;2023-09-19T13:36:33;15.80;99.90
29341;DHT22;16337;59.536;13.468;2023-09-19T13:38:59;15.70;99.90
29341;DHT22;16337;59.536;13.468;2023-09-19T13:41:25;15.50;99.90
29341;DHT22;16337;59.536;13.468;2023-09-19T13:43:51;15.50;99.90
29341;DHT22;16337;59.536;13.468;2023-09-19T13:46:17;15.50;99.90
29341;DHT22;16337;59.536;13.468;2023-09-19T13:48:51;15.50;99.90
29341;DHT22;16337;59.536;13.468;2023-09-19T13:51:17;15.60;99.90
29341;DHT22;16337;59.536;13.468;2023-09-19T13:53:45;15.70;99.90
29341;DHT22;16337;59.536;13.468;2023-09-19T13:56:10;15.90;99.90
29341;DHT22;16337;59.536;13.468;2023-09-19T13:58:36;15.80;99.90
29341;DHT22;16337;59.536;13.468;2023-09-19T14:01:02;15.80;99.90
29341;DHT22;16337;59.536;13.468;2023-09-19T14:03:28;15.80;99.90
29341;DHT22;16337;59.536;13.468;2023-09-19T14:05:54;15.50;99.90
29341;DHT22;16337;59.536;13.468;2023-09-19T14:08:20;15.50;99.90
29341;DHT22;16337;59.536;13.468;2023-09-19T14:10:45;15.60;99.90
29341;DHT22;16337;59.536;13.468;2023-09-19T14:13:11;15.70;99.90
29341;DHT22;16337;59.536;13.468;2023-09-19T14:15:38;15.70;99.90
29341;DHT22;16337;59.536;13.468;2023-09-19T14:18:04;15.80;99.90
29341;DHT22;16337;59.536;13.468;2023-09-19T14:20:30;15.80;99.90
29341;DHT22;16337;59.536;13.468;2023-09-19T14:22:57;15.70;99.90
29341;DHT22;16337;59.536;13.468;2023-09-19T14:25:26;15.80;99.90
29341;DHT22;16337;59.536;13.468;2023-09-19T14:27:52;16.00;99.90
29341;DHT22;16337;59.536;13.468;2023-09-19T14:30:18;16.00;99.90
29341;DHT22;16337;59.536;13.468;2023-09-19T14:32:43;15.90;99.90
29341;DHT22;16337;59.536;13.468;2023-09-19T14:35:09;15.80;99.90
29341;DHT22;16337;59.536;13.468;2023-09-19T14:37:36;15.80;99.90
29341;DHT22;16337;59.536;13.468;2023-09-19T14:40:04;15.80;99.90
29341;DHT22;16337;59.536;13.468;2023-09-19T14:42:35;15.80;99.90
29341;DHT22;16337;59.536;13.468;2023-09-19T14:45:02;15.80;99.90
29341;DHT22;16337;59.536;13.468;2023-09-19T14:47:28;15.70;99.90
29341;DHT22;16337;59.536;13.468;2023-09-19T14:49:53;15.60;99.90
29341;DHT22;16337;59.536;13.468;2023-09-19T14:52:19;15.60;99.90
29341;DHT22;16337;59.536;13.468;2023-09-19T14:54:45;15.60;99.90
29341;DHT22;16337;59.536;13.468;2023-09-19T14:57:10;15.60;99.90
29341;DHT22;16337;59.536;13.468;2023-09-19T14:59:36;15.50;99.90
29341;DHT22;16337;59.536;13.468;2023-09-19T15:02:05;15.50;99.90
29341;DHT22;16337;59.536;13.468;2023-09-19T15:04:31;15.50;99.90
29341;DHT22;16337;59.536;13.468;2023-09-19T15:06:56;15.50;99.90
29341;DHT22;16337;59.536;13.468;2023-09-19T15:09:23;15.50;99.90
29341;DHT22;16337;59.536;13.468;2023-09-19T15:11:52;15.50;99.90
29341;DHT22;16337;59.536;13.468;2023-09-19T15:14:18;15.50;99.90
29341;DHT22;16337;59.536;13.468;2023-09-19T15:16:43;15.50;99.90
29341;DHT22;16337;59.536;13.468;2023-09-19T15:19:09;15.50;99.90
29341;DHT22;16337;59.536;13.468;2023-09-19T15:21:38;15.40;99.90
29341;DHT22;16337;59.536;13.468;2023-09-19T15:24:04;15.30;99.90
29341;DHT22;16337;59.536;13.468;2023-09-19T15:26:30;15.20;99.90
29341;DHT22;16337;59.536;13.468;2023-09-19T15:28:56;15.10;99.90
29341;DHT22;16337;59.536;13.468;2023-09-19T15:31:22;15.10;99.90
29341;DHT22;16337;59.536;13.468;2023-09-19T15:33:47;15.10;99.90
29341;DHT22;16337;59.536;13.468;2023-09-19T15:36:15;15.10;99.90
29341;DHT22;16337;59.536;13.468;2023-09-19T15:41:33;14.90;99.90
29341;DHT22;16337;59.536;13.468;2023-09-19T15:44:01;14.80;99.90
29341;DHT22;16337;59.536;13.468;2023-09-19T15:46:33;14.70;99.90
29341;DHT22;16337;59.536;13.468;2023-09-19T15:49:02;14.60;99.90
29341;DHT22;16337;59.536;13.468;2023-09-19T15:51:28;14.60;99.90
29341;DHT22;16337;59.536;13.468;2023-09-19T15:53:55;14.60;99.90
29341;DHT22;16337;59.536;13.468;2023-09-19T15:56:22;14.60;99.90
29341;DHT22;16337;59.536;13.468;2023-09-19T15:58:53;14.50;99.90
29341;DHT22;16337;59.536;13.468;2023-09-19T16:01:22;14.60;99.90
29341;DHT22;16337;59.536;13.468;2023-09-19T16:03:50;14.60;99.90
29341;DHT22;16337;59.536;13.468;2023-09-19T16:06:22;14.50;99.90
29341;DHT22;16337;59.536;13.468;2023-09-19T16:08:53;14.50;99.90
29341;DHT22;16337;59.536;13.468;2023-09-19T16:11:19;14.40;99.90
29341;DHT22;16337;59.536;13.468;2023-09-19T16:13:47;14.40;99.90
29341;DHT22;16337;59.536;13.468;2023-09-19T16:16:14;14.30;99.90
29341;DHT22;16337;59.536;13.468;2023-09-19T16:18:51;14.20;99.90
29341;DHT22;16337;59.536;13.468;2023-09-19T16:21:17;14.20;99.90
29341;DHT22;16337;59.536;13.468;2023-09-19T16:23:49;14.20;99.90